createdAt,value
2023-04-17T00:00:52.951Z,8.84
2023-04-17T00:05:56.799Z,8.87
2023-04-17T00:11:07.062Z,8.88
2023-04-17T00:16:13.913Z,8.77
2023-04-17T00:21:15.786Z,8.79
2023-04-17T00:26:17.497Z,8.47
2023-04-17T00:31:19.496Z,8.65
2023-04-17T00:36:21.390Z,8.69
2023-04-17T00:41:23.257Z,8.54
2023-04-17T00:46:28.015Z,8.40
2023-04-17T00:51:29.767Z,8.67
2023-04-17T00:56:31.906Z,8.68
2023-04-17T01:01:33.759Z,8.80
2023-04-17T01:06:36.539Z,8.77
2023-04-17T01:11:39.337Z,8.94
2023-04-17T01:16:42.177Z,9.00
2023-04-17T01:21:46.168Z,9.00
2023-04-17T01:26:47.940Z,8.88
2023-04-17T01:31:50.419Z,8.85
2023-04-17T01:36:52.166Z,8.71
2023-04-17T01:41:54.365Z,8.83
2023-04-17T01:46:56.669Z,8.86
2023-04-17T01:51:58.268Z,8.87
2023-04-17T01:57:01.318Z,8.84
2023-04-17T02:02:03.112Z,8.62
2023-04-17T02:07:04.946Z,8.65
2023-04-17T02:12:07.987Z,8.53
2023-04-17T02:17:09.626Z,8.44
2023-04-17T02:22:11.213Z,8.43
2023-04-17T02:27:12.945Z,8.40
2023-04-17T02:32:18.383Z,8.36
2023-04-17T02:37:24.226Z,8.39
2023-04-17T02:42:27.461Z,8.54
2023-04-17T02:47:33.666Z,8.65
2023-04-17T02:52:37.454Z,8.78
2023-04-17T02:57:39.294Z,8.74
2023-04-17T03:02:41.552Z,8.71
2023-04-17T03:07:43.305Z,8.76
2023-04-17T03:12:45.171Z,8.76
2023-04-17T03:17:47.983Z,8.70
2023-04-17T03:22:51.972Z,8.57
2023-04-17T03:27:53.639Z,8.51
2023-04-17T03:32:58.970Z,8.46
2023-04-17T03:38:04.425Z,8.61
2023-04-17T03:43:07.418Z,8.85
2023-04-17T03:48:09.271Z,8.67
2023-04-17T03:53:12.559Z,8.74
2023-04-17T03:58:14.634Z,8.59
2023-04-17T04:03:16.514Z,8.75
2023-04-17T04:08:18.499Z,8.76
2023-04-17T04:13:24.184Z,8.69
2023-04-17T04:18:30.792Z,8.75
2023-04-17T04:23:33.850Z,8.76
2023-04-17T04:28:36.147Z,8.70
2023-04-17T04:33:38.213Z,8.71
2023-04-17T04:38:40.464Z,8.64
2023-04-17T04:43:51.621Z,8.76
2023-04-17T04:48:53.422Z,8.71
2023-04-17T04:53:55.293Z,8.72
2023-04-17T04:58:58.520Z,8.76
2023-04-17T05:04:01.309Z,8.87
2023-04-17T05:09:04.517Z,8.91
2023-04-17T05:14:09.324Z,8.86
2023-04-17T05:19:14.984Z,8.84
2023-04-17T05:24:43.080Z,8.91
2023-04-17T05:29:44.989Z,8.78
2023-04-17T05:34:47.167Z,8.77
2023-04-17T05:39:50.103Z,8.70
2023-04-17T05:44:52.043Z,8.84
2023-04-17T05:49:57.491Z,8.85
2023-04-17T05:55:02.942Z,8.99
2023-04-17T06:00:13.125Z,9.05
2023-04-17T06:05:24.348Z,8.86
2023-04-17T06:10:29.291Z,8.81
2023-04-17T06:15:31.450Z,8.97
2023-04-17T06:20:33.324Z,8.74
2023-04-17T06:25:38.014Z,8.80
2023-04-17T06:30:39.792Z,8.99
2023-04-17T06:35:42.562Z,9.13
2023-04-17T06:40:53.249Z,9.25
2023-04-17T06:45:55.316Z,8.86
2023-04-17T06:50:56.986Z,8.84
2023-04-17T06:55:58.753Z,8.99
2023-04-17T07:01:00.462Z,8.92
2023-04-17T07:06:02.468Z,8.89
2023-04-17T07:11:04.164Z,8.75
2023-04-17T07:16:06.434Z,8.43
2023-04-17T07:21:08.337Z,8.40
2023-04-17T07:26:11.049Z,8.46
2023-04-17T07:31:12.722Z,8.56
2023-04-17T07:36:14.488Z,8.57
2023-04-17T07:41:16.331Z,8.68
2023-04-17T07:46:18.058Z,8.66
2023-04-17T07:51:19.796Z,8.68
2023-04-17T07:56:21.423Z,8.54
2023-04-17T08:01:23.163Z,8.41
2023-04-17T08:06:25.049Z,8.40
2023-04-17T08:11:26.708Z,8.55
2023-04-17T08:16:28.797Z,8.48
2023-04-17T08:21:31.177Z,8.76
2023-04-17T08:26:33.117Z,8.76
2023-04-17T08:31:39.965Z,8.76
2023-04-17T08:36:43.061Z,8.87
2023-04-17T08:42:11.912Z,8.84
2023-04-17T08:47:18.282Z,8.88
2023-04-17T08:52:19.983Z,8.84
2023-04-17T08:57:23.968Z,8.89
2023-04-17T09:02:27.617Z,8.95
2023-04-17T09:07:30.737Z,9.05
2023-04-17T09:12:32.326Z,9.25
2023-04-17T09:17:38.561Z,9.46
2023-04-17T09:22:41.231Z,9.71
2023-04-17T09:27:42.958Z,9.72
2023-04-17T09:32:44.704Z,9.80
2023-04-17T09:37:59.169Z,9.67
2023-04-17T09:43:03.857Z,9.58
2023-04-17T09:48:11.004Z,9.65
2023-04-17T09:53:13.902Z,9.90
2023-04-17T09:58:16.564Z,9.94
2023-04-17T10:03:18.558Z,10.12
2023-04-17T10:08:20.601Z,10.43
2023-04-17T10:13:27.253Z,10.43
2023-04-17T10:18:28.993Z,10.55
2023-04-17T10:23:33.317Z,10.71
2023-04-17T10:28:52.177Z,11.05
2023-04-17T10:33:54.396Z,11.37
2023-04-17T10:39:13.173Z,11.68
2023-04-17T10:44:15.063Z,11.68
2023-04-17T10:49:16.850Z,11.58
2023-04-17T10:54:18.572Z,11.74
2023-04-17T10:59:22.118Z,11.88
2023-04-17T11:04:27.235Z,12.09
2023-04-17T11:09:29.639Z,12.39
2023-04-17T11:14:32.126Z,12.59
2023-04-17T11:19:33.851Z,12.79
2023-04-17T11:24:37.490Z,12.94
2023-04-17T11:29:39.097Z,12.99
2023-04-17T11:34:41.291Z,13.24
2023-04-17T11:39:43.515Z,13.19
2023-04-17T11:44:45.187Z,13.44
2023-04-17T11:49:47.150Z,13.74
2023-04-17T11:55:00.450Z,13.92
2023-04-17T12:00:12.310Z,14.22
2023-04-17T12:05:15.945Z,14.23
2023-04-17T12:10:18.355Z,14.49
2023-04-17T12:15:19.939Z,14.77
2023-04-17T12:20:21.550Z,14.84
2023-04-17T12:25:24.514Z,14.98
2023-04-17T12:30:29.460Z,15.13
2023-04-17T12:35:33.517Z,15.21
2023-04-17T12:40:35.106Z,15.23
2023-04-17T12:45:45.723Z,15.31
2023-04-17T12:50:47.459Z,15.64
2023-04-17T12:55:49.253Z,15.60
2023-04-17T13:00:51.084Z,15.42
2023-04-17T13:06:03.647Z,15.53
2023-04-17T13:11:28.705Z,15.84
2023-04-17T13:17:01.006Z,15.86
2023-04-17T13:22:41.739Z,15.78
2023-04-17T13:29:00.261Z,15.76
2023-04-17T13:35:23.702Z,16.12
2023-04-17T13:41:15.520Z,15.86
2023-04-17T13:46:24.426Z,16.02
2023-04-17T13:51:27.291Z,16.10
2023-04-17T13:56:29.396Z,16.09
2023-04-17T14:01:31.040Z,15.66
2023-04-17T14:06:37.484Z,15.87
2023-04-17T14:11:39.301Z,15.99
2023-04-17T14:16:41.364Z,16.01
2023-04-17T14:21:43.100Z,16.42
2023-04-17T14:26:44.896Z,16.08
2023-04-17T14:31:46.740Z,15.88
2023-04-17T14:36:48.809Z,16.15
2023-04-17T14:41:50.604Z,16.36
2023-04-17T14:46:52.494Z,16.27
2023-04-17T14:51:55.005Z,16.16
2023-04-17T14:56:57.848Z,16.36
2023-04-17T15:01:59.693Z,16.12
2023-04-17T15:07:01.433Z,15.93
2023-04-17T15:12:03.150Z,16.03
2023-04-17T15:17:07.676Z,16.13
2023-04-17T15:22:09.367Z,16.35
2023-04-17T15:27:11.641Z,15.91
2023-04-17T15:32:13.476Z,15.73
2023-04-17T15:37:15.234Z,15.92
2023-04-17T15:42:16.924Z,15.79
2023-04-17T15:47:18.602Z,15.70
2023-04-17T15:52:20.586Z,15.92
2023-04-17T15:57:23.536Z,15.75
2023-04-17T16:02:26.113Z,15.58
2023-04-17T16:07:27.812Z,15.41
2023-04-17T16:12:29.450Z,15.60
2023-04-17T16:17:31.091Z,15.66
2023-04-17T16:22:32.876Z,15.57
2023-04-17T16:27:34.805Z,15.50
2023-04-17T16:32:37.632Z,15.50
2023-04-17T16:37:39.658Z,15.34
2023-04-17T16:42:41.278Z,15.39
2023-04-17T16:47:42.968Z,15.36
2023-04-17T16:52:44.695Z,15.48
2023-04-17T16:57:47.923Z,15.36
2023-04-17T17:02:49.759Z,15.38
2023-04-17T17:07:51.510Z,15.33
2023-04-17T17:12:53.355Z,15.33
2023-04-17T17:17:55.133Z,15.30
2023-04-17T17:22:56.788Z,15.13
2023-04-17T17:27:58.405Z,14.98
2023-04-17T17:33:00.483Z,14.84
2023-04-17T17:38:02.242Z,14.76
2023-04-17T17:43:03.904Z,14.73
2023-04-17T17:48:06.280Z,14.70
2023-04-17T17:53:07.966Z,14.59
2023-04-17T17:58:09.645Z,14.48
2023-04-17T18:03:11.524Z,14.33
2023-04-17T18:08:14.352Z,14.25
2023-04-17T18:13:16.144Z,14.17
2023-04-17T18:18:17.808Z,13.98
2023-04-17T18:23:19.511Z,13.84
2023-04-17T18:28:21.286Z,13.68
2023-04-17T18:33:23.036Z,13.66
2023-04-17T18:38:25.525Z,13.52
2023-04-17T18:43:28.828Z,13.50
2023-04-17T18:48:30.743Z,13.39
2023-04-17T18:53:32.663Z,13.11
2023-04-17T18:58:34.235Z,13.03
2023-04-17T19:03:39.883Z,13.00
2023-04-17T19:08:41.862Z,12.86
2023-04-17T19:13:45.098Z,12.61
2023-04-17T19:18:46.843Z,12.59
2023-04-17T19:23:49.605Z,12.30
2023-04-17T19:28:51.385Z,12.28
2023-04-17T19:33:56.123Z,12.16
2023-04-17T19:38:59.719Z,12.00
2023-04-17T19:44:01.442Z,11.79
2023-04-17T19:49:03.327Z,11.66
2023-04-17T19:54:05.053Z,11.67
2023-04-17T19:59:12.776Z,11.44
2023-04-17T20:04:16.922Z,11.35
2023-04-17T20:09:19.361Z,11.20
2023-04-17T20:14:21.350Z,11.11
2023-04-17T20:19:23.874Z,11.22
2023-04-17T20:24:25.542Z,11.07
2023-04-17T20:29:27.335Z,10.99
2023-04-17T20:34:29.064Z,10.96
2023-04-17T20:39:30.828Z,10.93
2023-04-17T20:44:32.845Z,10.73
2023-04-17T20:49:34.576Z,10.70
2023-04-17T20:54:38.184Z,10.70
2023-04-17T20:59:39.850Z,10.85
2023-04-17T21:04:57.738Z,11.10
2023-04-17T21:09:59.487Z,11.14
2023-04-17T21:15:01.210Z,11.24
2023-04-17T21:20:09.568Z,11.28
2023-04-17T21:25:11.322Z,11.53
2023-04-17T21:30:13.170Z,11.11
2023-04-17T21:35:14.849Z,11.03
2023-04-17T21:40:17.168Z,10.94
2023-04-17T21:45:19.545Z,11.11
2023-04-17T21:50:21.170Z,10.95
2023-04-17T21:55:22.854Z,10.75
2023-04-17T22:00:24.777Z,10.86
2023-04-17T22:05:26.806Z,10.77
2023-04-17T22:10:29.268Z,10.82
2023-04-17T22:15:30.975Z,10.70
2023-04-17T22:20:32.739Z,10.85
2023-04-17T22:25:34.512Z,10.72
2023-04-17T22:30:36.160Z,10.81
2023-04-17T22:35:37.929Z,10.76
2023-04-17T22:40:40.650Z,10.75
2023-04-17T22:45:42.520Z,10.87
2023-04-17T22:50:45.563Z,10.69
2023-04-17T22:55:47.190Z,10.70
2023-04-17T23:00:49.083Z,10.53
2023-04-17T23:05:53.432Z,10.48
2023-04-17T23:10:57.741Z,10.55
2023-04-17T23:15:59.454Z,10.48
2023-04-17T23:21:01.109Z,10.57
2023-04-17T23:26:02.798Z,10.37
2023-04-17T23:31:07.941Z,10.34
2023-04-17T23:36:09.664Z,10.40
2023-04-17T23:41:11.690Z,10.20
2023-04-17T23:46:13.777Z,10.23
2023-04-17T23:51:15.506Z,10.30
2023-04-17T23:56:18.135Z,10.13
